createdAt,value
2023-06-08T00:01:45.251Z,99451.41
2023-06-08T00:04:14.128Z,99549.06
2023-06-08T00:06:42.102Z,99553.63
2023-06-08T00:09:10.705Z,99431.66
2023-06-08T00:11:40.699Z,99543.53
2023-06-08T00:14:07.330Z,99544.38
2023-06-08T00:16:36.119Z,99562.75
2023-06-08T00:19:03.659Z,99488.31
2023-06-08T00:21:34.521Z,99483.47
2023-06-08T00:24:01.877Z,99419.50
2023-06-08T00:26:28.928Z,99505.81
2023-06-08T00:28:56.010Z,99354.31
2023-06-08T00:31:23.080Z,99522.25
2023-06-08T00:33:50.058Z,99526.53
2023-06-08T00:36:18.690Z,99453.63
2023-06-08T00:38:48.121Z,99465.09
2023-06-08T00:41:15.107Z,99531.91
2023-06-08T00:43:46.053Z,99450.25
2023-06-08T00:46:15.452Z,99551.53
2023-06-08T00:48:43.249Z,99536.47
2023-06-08T00:51:12.681Z,99542.97
2023-06-08T00:53:39.834Z,99383.72
2023-06-08T00:56:08.803Z,99515.19
2023-06-08T00:58:38.562Z,99509.69
2023-06-08T01:01:12.553Z,99401.97
2023-06-08T01:03:40.141Z,99425.53
2023-06-08T01:06:09.414Z,99452.34
2023-06-08T01:09:08.094Z,99531.38
2023-06-08T01:11:57.008Z,99478.06
2023-06-08T01:14:57.172Z,99427.59
2023-06-08T01:17:42.627Z,99518.78
2023-06-08T01:20:18.219Z,99533.16
2023-06-08T01:22:57.645Z,99531.63
2023-06-08T01:25:31.571Z,99531.50
2023-06-08T01:28:13.478Z,99557.72
2023-06-08T01:30:50.474Z,99530.22
2023-06-08T01:33:24.195Z,99477.28
2023-06-08T01:36:06.047Z,99536.72
2023-06-08T01:38:46.506Z,99612.75
2023-06-08T01:41:22.010Z,99544.44
2023-06-08T01:43:51.636Z,99484.72
2023-06-08T01:46:21.495Z,99535.16
2023-06-08T01:48:50.637Z,99461.63
2023-06-08T01:51:19.895Z,99453.19
2023-06-08T01:53:47.071Z,99554.06
2023-06-08T01:56:15.222Z,99498.34
2023-06-08T01:58:42.251Z,99503.22
2023-06-08T02:01:09.351Z,99536.84
2023-06-08T02:03:36.539Z,99539.47
2023-06-08T02:06:03.474Z,99383.72
2023-06-08T02:08:33.246Z,99543.03
2023-06-08T02:11:00.198Z,99540.41
2023-06-08T02:13:27.161Z,99542.91
2023-06-08T02:15:54.881Z,99534.63
2023-06-08T02:18:22.715Z,99534.31
2023-06-08T02:20:49.528Z,99410.78
2023-06-08T02:23:16.651Z,99538.03
2023-06-08T02:25:43.605Z,99535.28
2023-06-08T02:28:10.768Z,99513.28
2023-06-08T02:30:37.862Z,99426.94
2023-06-08T02:33:04.914Z,99472.38
2023-06-08T02:35:31.977Z,99359.38
2023-06-08T02:37:59.394Z,99531.84
2023-06-08T02:40:26.823Z,99533.78
2023-06-08T02:42:54.037Z,99536.97
2023-06-08T02:45:24.185Z,99540.16
2023-06-08T02:47:51.166Z,99488.59
2023-06-08T02:50:18.127Z,99546.78
2023-06-08T02:52:45.084Z,99545.81
2023-06-08T02:55:12.085Z,99523.03
2023-06-08T02:57:40.190Z,99545.44
2023-06-08T03:00:13.976Z,99521.94
2023-06-08T03:02:57.037Z,99587.41
2023-06-08T03:05:25.262Z,99555.13
2023-06-08T03:07:54.229Z,99383.13
2023-06-08T03:10:21.616Z,99492.25
2023-06-08T03:12:48.550Z,99513.81
2023-06-08T03:15:24.311Z,99556.34
2023-06-08T03:17:57.225Z,99549.59
2023-06-08T03:20:24.338Z,99531.47
2023-06-08T03:22:59.557Z,99531.06
2023-06-08T03:25:29.710Z,99548.06
2023-06-08T03:27:56.846Z,99519.88
2023-06-08T03:30:23.832Z,99386.44
2023-06-08T03:32:54.190Z,99531.34
2023-06-08T03:35:54.473Z,99565.22
2023-06-08T03:38:34.837Z,99562.97
2023-06-08T03:41:05.531Z,99575.56
2023-06-08T03:43:32.927Z,99492.28
2023-06-08T03:46:00.016Z,99580.97
2023-06-08T03:48:27.756Z,99498.50
2023-06-08T03:50:56.790Z,99532.72
2023-06-08T03:53:25.303Z,99481.91
2023-06-08T03:55:52.257Z,99513.38
2023-06-08T03:58:19.357Z,99577.22
2023-06-08T04:00:47.123Z,99582.75
2023-06-08T04:03:15.745Z,99507.47
2023-06-08T04:05:43.039Z,99579.88
2023-06-08T04:08:10.132Z,99400.84
2023-06-08T04:10:37.328Z,99580.25
2023-06-08T04:13:04.194Z,99571.00
2023-06-08T04:15:32.176Z,99581.09
2023-06-08T04:17:59.461Z,99467.31
2023-06-08T04:20:28.152Z,99585.09
2023-06-08T04:22:57.660Z,99547.09
2023-06-08T04:25:28.519Z,99574.34
2023-06-08T04:27:56.292Z,99508.19
2023-06-08T04:30:23.530Z,99576.38
2023-06-08T04:32:50.889Z,99494.50
2023-06-08T04:35:19.170Z,99579.41
2023-06-08T04:37:46.406Z,99548.78
2023-06-08T04:40:13.532Z,99584.81
2023-06-08T04:42:42.642Z,99585.50
2023-06-08T04:45:12.531Z,99587.03
2023-06-08T04:47:43.316Z,99578.16
2023-06-08T04:50:11.196Z,99585.75
2023-06-08T04:52:42.095Z,99584.50
2023-06-08T04:55:14.167Z,99576.31
2023-06-08T04:57:42.980Z,99574.31
2023-06-08T05:00:11.424Z,99465.28
2023-06-08T05:02:39.166Z,99586.56
2023-06-08T05:05:06.923Z,99529.47
2023-06-08T05:07:34.315Z,99481.59
2023-06-08T05:10:02.122Z,99492.00
2023-06-08T05:12:29.156Z,99507.38
2023-06-08T05:14:56.403Z,99537.19
2023-06-08T05:17:23.676Z,99578.97
2023-06-08T05:19:51.789Z,99578.69
2023-06-08T05:22:18.770Z,99569.28
2023-06-08T05:24:45.599Z,99517.31
2023-06-08T05:27:12.439Z,99581.13
2023-06-08T05:29:39.991Z,99591.09
2023-06-08T05:32:08.249Z,99579.66
2023-06-08T05:34:35.202Z,99589.06
2023-06-08T05:37:02.071Z,99588.22
2023-06-08T05:39:29.110Z,99581.88
2023-06-08T05:41:55.826Z,99519.88
2023-06-08T05:44:22.765Z,99362.38
2023-06-08T05:46:50.665Z,99569.47
2023-06-08T05:49:17.683Z,99571.75
2023-06-08T05:51:44.751Z,99591.97
2023-06-08T05:54:11.720Z,99595.16
2023-06-08T05:56:38.528Z,99566.28
2023-06-08T05:59:05.352Z,99598.25
2023-06-08T06:01:32.438Z,99600.59
2023-06-08T06:03:59.645Z,99572.06
2023-06-08T06:06:26.452Z,99588.28
2023-06-08T06:08:53.305Z,99478.75
2023-06-08T06:11:20.172Z,99595.25
2023-06-08T06:13:46.864Z,99608.84
2023-06-08T06:16:17.359Z,99550.13
2023-06-08T06:18:48.060Z,99596.88
2023-06-08T06:21:15.262Z,99454.44
2023-06-08T06:23:42.244Z,99575.97
2023-06-08T06:26:10.009Z,99595.16
2023-06-08T06:28:37.009Z,99570.22
2023-06-08T06:31:05.345Z,99526.28
2023-06-08T06:33:32.042Z,99559.22
2023-06-08T06:35:58.972Z,99592.91
2023-06-08T06:38:26.184Z,99570.28
2023-06-08T06:40:53.969Z,99584.34
2023-06-08T06:43:22.439Z,99589.66
2023-06-08T06:46:04.125Z,99596.91
2023-06-08T06:48:31.641Z,99599.88
2023-06-08T06:50:58.913Z,99587.47
2023-06-08T06:53:25.656Z,99570.97
2023-06-08T06:55:52.492Z,99595.06
2023-06-08T06:58:20.568Z,99573.44
2023-06-08T07:00:47.378Z,99559.06
2023-06-08T07:03:14.258Z,99574.38
2023-06-08T07:05:41.149Z,99596.19
2023-06-08T07:08:07.931Z,99548.94
2023-06-08T07:11:02.540Z,99602.53
2023-06-08T07:13:30.158Z,99595.63
2023-06-08T07:16:09.121Z,99599.44
2023-06-08T07:18:46.150Z,99598.00
2023-06-08T07:21:13.165Z,99594.63
2023-06-08T07:27:12.137Z,99599.16
2023-06-08T07:29:39.277Z,99394.09
2023-06-08T07:32:06.577Z,99538.28
2023-06-08T07:34:33.357Z,99592.63
2023-06-08T07:37:00.181Z,99564.50
2023-06-08T07:39:26.971Z,99527.34
2023-06-08T07:41:53.775Z,99588.88
2023-06-08T07:44:20.605Z,99597.28
2023-06-08T07:46:47.608Z,99588.31
2023-06-08T07:49:14.597Z,99521.81
2023-06-08T07:51:41.416Z,99593.25
2023-06-08T07:54:08.205Z,99584.31
2023-06-08T07:56:35.412Z,99582.59
2023-06-08T07:59:02.147Z,99578.91
2023-06-08T08:01:29.056Z,99582.09
2023-06-08T08:03:55.978Z,99536.00
2023-06-08T08:06:22.894Z,99547.56
2023-06-08T08:08:49.686Z,99545.88
2023-06-08T08:11:16.439Z,99350.34
2023-06-08T08:13:43.442Z,99553.69
2023-06-08T08:16:10.349Z,99577.31
2023-06-08T08:18:37.488Z,99583.44
2023-06-08T08:21:04.699Z,99586.66
2023-06-08T08:23:40.170Z,99586.34
2023-06-08T08:26:14.343Z,99572.84
2023-06-08T08:28:45.999Z,99572.41
2023-06-08T08:31:22.693Z,99579.91
2023-06-08T08:33:53.254Z,99571.94
2023-06-08T08:36:20.017Z,99426.53
2023-06-08T08:38:47.211Z,99565.75
2023-06-08T08:41:18.451Z,99569.63
2023-06-08T08:43:53.185Z,99563.38
2023-06-08T08:46:23.435Z,99600.66
2023-06-08T08:48:58.305Z,99523.03
2023-06-08T08:51:26.970Z,99501.69
2023-06-08T08:53:54.173Z,99509.47
2023-06-08T08:56:22.538Z,99579.63
2023-06-08T08:58:52.989Z,99520.03
2023-06-08T09:01:20.584Z,99541.72
2023-06-08T09:03:47.843Z,99582.91
2023-06-08T09:06:14.946Z,99473.22
2023-06-08T09:08:42.322Z,99566.28
2023-06-08T09:11:11.354Z,99546.22
2023-06-08T09:13:42.433Z,99565.94
2023-06-08T09:16:11.172Z,99563.06
2023-06-08T09:18:38.415Z,99536.31
2023-06-08T09:21:23.321Z,99513.16
2023-06-08T09:24:11.534Z,99558.63
2023-06-08T09:26:49.188Z,99532.63
2023-06-08T09:29:42.213Z,99552.72
2023-06-08T09:32:11.255Z,99541.03
2023-06-08T09:34:52.478Z,99558.47
2023-06-08T09:37:20.365Z,99524.41
2023-06-08T09:39:47.629Z,99530.34
2023-06-08T09:42:14.620Z,99546.38
2023-06-08T09:44:41.651Z,99546.16
2023-06-08T09:47:26.603Z,99542.88
2023-06-08T09:49:55.361Z,99537.94
2023-06-08T09:52:24.518Z,99538.56
2023-06-08T09:54:52.784Z,99530.75
2023-06-08T09:57:21.853Z,99485.19
2023-06-08T10:00:18.657Z,99506.06
2023-06-08T10:03:10.926Z,99523.72
2023-06-08T10:05:41.918Z,99509.25
2023-06-08T10:08:10.247Z,99515.91
2023-06-08T10:10:38.855Z,99527.38
2023-06-08T10:13:06.970Z,99526.91
2023-06-08T10:15:34.835Z,99508.47
2023-06-08T10:18:02.663Z,99526.03
2023-06-08T10:20:31.075Z,99500.47
2023-06-08T10:23:02.116Z,99500.84
2023-06-08T10:25:31.647Z,99517.97
2023-06-08T10:28:09.849Z,99532.03
2023-06-08T10:30:41.690Z,99462.66
2023-06-08T10:33:25.397Z,99519.63
2023-06-08T10:39:01.122Z,99520.78
2023-06-08T10:41:53.839Z,99505.50
2023-06-08T10:44:36.727Z,99510.56
2023-06-08T10:47:13.096Z,99411.63
2023-06-08T10:49:45.262Z,99509.00
2023-06-08T10:52:19.084Z,99488.38
2023-06-08T10:54:59.605Z,99504.81
2023-06-08T10:57:36.196Z,99450.22
2023-06-08T11:00:27.095Z,99504.09
2023-06-08T11:02:55.536Z,99491.03
2023-06-08T11:05:23.951Z,99516.22
2023-06-08T11:07:54.148Z,99379.94
2023-06-08T11:10:22.052Z,99426.78
2023-06-08T11:12:48.722Z,99486.44
2023-06-08T11:15:16.300Z,99488.44
2023-06-08T11:17:45.901Z,99491.16
2023-06-08T11:20:14.949Z,99406.63
2023-06-08T11:22:41.874Z,99486.75
2023-06-08T11:25:09.467Z,99445.84
2023-06-08T11:27:45.698Z,99408.88
2023-06-08T11:30:23.561Z,99455.88
2023-06-08T11:32:52.127Z,99471.44
2023-06-08T11:35:20.570Z,99470.00
2023-06-08T11:37:50.473Z,99455.59
2023-06-08T11:40:18.015Z,99453.63
2023-06-08T11:42:45.492Z,99461.59
2023-06-08T11:45:13.294Z,99467.81
2023-06-08T11:47:42.343Z,99399.84
2023-06-08T11:50:11.104Z,99349.84
2023-06-08T11:52:43.476Z,99464.34
2023-06-08T11:55:17.113Z,99422.91
2023-06-08T11:57:45.864Z,99454.47
2023-06-08T12:00:19.338Z,99441.88
2023-06-08T12:02:52.683Z,99441.31
2023-06-08T12:05:26.160Z,99438.47
2023-06-08T12:08:03.899Z,99374.75
2023-06-08T12:10:39.040Z,99310.09
2023-06-08T12:13:10.941Z,99428.19
2023-06-08T12:15:41.177Z,99435.63
2023-06-08T12:18:11.027Z,99377.56
2023-06-08T12:20:39.131Z,99375.38
2023-06-08T12:23:06.683Z,99418.22
2023-06-08T12:25:34.114Z,99407.69
2023-06-08T12:28:01.357Z,99331.91
2023-06-08T12:30:28.389Z,99414.63
2023-06-08T12:32:56.884Z,99345.31
2023-06-08T12:35:25.156Z,99405.53
2023-06-08T12:37:52.413Z,99302.91
2023-06-08T12:40:22.413Z,99340.38
2023-06-08T12:42:52.632Z,99353.81
2023-06-08T12:45:21.056Z,99389.81
2023-06-08T12:47:48.730Z,99369.06
2023-06-08T12:50:18.352Z,99389.00
2023-06-08T12:52:45.959Z,99379.50
2023-06-08T12:55:13.006Z,99382.91
2023-06-08T12:57:39.851Z,99384.13
2023-06-08T13:00:08.753Z,99371.41
2023-06-08T13:02:35.715Z,99380.38
2023-06-08T13:05:02.657Z,99376.28
2023-06-08T13:07:30.114Z,99381.22
2023-06-08T13:09:56.958Z,99373.56
2023-06-08T13:12:25.792Z,99380.22
2023-06-08T13:14:53.201Z,99165.88
2023-06-08T13:17:20.190Z,99382.16
2023-06-08T13:19:47.663Z,99211.31
2023-06-08T13:22:14.565Z,99378.66
2023-06-08T13:24:42.657Z,99367.34
2023-06-08T13:27:10.465Z,99344.06
2023-06-08T13:29:39.883Z,99313.72
2023-06-08T13:32:07.923Z,99127.44
2023-06-08T13:34:36.431Z,99372.75
2023-06-08T13:37:03.326Z,99267.63
2023-06-08T13:39:30.312Z,99363.16
2023-06-08T13:41:58.120Z,99317.50
2023-06-08T13:44:26.355Z,99203.47
2023-06-08T13:46:54.325Z,99308.97
2023-06-08T13:49:21.255Z,99361.22
2023-06-08T13:51:48.912Z,99336.41
2023-06-08T13:54:18.981Z,99359.00
2023-06-08T13:56:47.050Z,99313.94
2023-06-08T13:59:13.944Z,99284.78
2023-06-08T14:01:41.162Z,99295.97
2023-06-08T14:04:08.270Z,99285.81
2023-06-08T14:06:35.512Z,99353.50
2023-06-08T14:09:04.013Z,99308.94
2023-06-08T14:11:30.905Z,99348.47
2023-06-08T14:13:58.434Z,99347.66
2023-06-08T14:16:28.308Z,99271.41
2023-06-08T14:18:58.465Z,99330.53
2023-06-08T14:21:25.446Z,99302.25
2023-06-08T14:23:54.359Z,99335.03
2023-06-08T14:26:22.555Z,99311.09
2023-06-08T14:28:49.278Z,99289.22
2023-06-08T14:31:16.033Z,99332.63
2023-06-08T14:33:43.081Z,99317.75
2023-06-08T14:36:09.878Z,99280.47
2023-06-08T14:38:36.672Z,99327.06
2023-06-08T14:41:03.597Z,99173.59
2023-06-08T14:43:30.504Z,99301.31
2023-06-08T14:45:57.316Z,99241.97
2023-06-08T14:48:24.436Z,99318.97
2023-06-08T14:50:51.221Z,99313.09
2023-06-08T14:53:18.016Z,99289.91
2023-06-08T14:55:44.790Z,99307.47
2023-06-08T14:58:11.674Z,99298.38
2023-06-08T15:00:38.463Z,99321.66
2023-06-08T15:03:05.571Z,99298.31
2023-06-08T15:05:32.639Z,99200.06
2023-06-08T15:07:59.662Z,99299.81
2023-06-08T15:10:26.443Z,99223.97
2023-06-08T15:12:53.330Z,99269.84
2023-06-08T15:15:20.690Z,99304.09
2023-06-08T15:17:47.514Z,99240.09
2023-06-08T15:20:15.621Z,99304.78
2023-06-08T15:22:42.970Z,99288.19
2023-06-08T15:25:10.846Z,99252.31
2023-06-08T15:27:38.099Z,99202.38
2023-06-08T15:30:06.573Z,99201.53
2023-06-08T15:32:36.847Z,99286.53
2023-06-08T15:35:06.967Z,99277.31
2023-06-08T15:37:35.107Z,99267.91
2023-06-08T15:40:03.291Z,99226.56
2023-06-08T15:42:30.157Z,99264.63
2023-06-08T15:44:57.389Z,99235.56
2023-06-08T15:47:24.647Z,99273.25
2023-06-08T15:49:51.406Z,99189.28
2023-06-08T15:52:22.078Z,99281.66
2023-06-08T15:54:49.507Z,99270.41
2023-06-08T15:57:17.867Z,99306.66
2023-06-08T15:59:48.187Z,99245.00
2023-06-08T16:02:16.374Z,99276.53
2023-06-08T16:04:43.361Z,99178.44
2023-06-08T16:07:10.284Z,99196.66
2023-06-08T16:09:37.411Z,99232.91
2023-06-08T16:12:04.762Z,99233.50
2023-06-08T16:14:31.766Z,99113.28
2023-06-08T16:16:58.867Z,99186.78
2023-06-08T16:19:26.824Z,99277.34
2023-06-08T16:21:59.884Z,99280.19
2023-06-08T16:24:30.855Z,99286.53
2023-06-08T16:27:00.268Z,99287.53
2023-06-08T16:29:27.436Z,99283.00
2023-06-08T16:31:55.330Z,99291.41
2023-06-08T16:34:23.124Z,99285.69
2023-06-08T16:36:50.955Z,99305.94
2023-06-08T16:39:17.760Z,99287.94
2023-06-08T16:41:50.735Z,99263.69
2023-06-08T16:44:26.213Z,99289.97
2023-06-08T16:46:55.308Z,99297.75
2023-06-08T16:49:22.341Z,99267.56
2023-06-08T16:51:49.469Z,99247.06
2023-06-08T16:54:16.646Z,99275.13
2023-06-08T16:56:43.745Z,99287.19
2023-06-08T16:59:13.392Z,99301.28
2023-06-08T17:01:42.335Z,99294.53
2023-06-08T17:04:09.459Z,99259.69
2023-06-08T17:06:37.298Z,99280.38
2023-06-08T17:09:04.430Z,99276.72
2023-06-08T17:11:32.285Z,99272.84
2023-06-08T17:13:59.961Z,99291.06
2023-06-08T17:16:29.006Z,99288.38
2023-06-08T17:18:56.187Z,99296.13
2023-06-08T17:21:23.119Z,99067.34
2023-06-08T17:23:56.568Z,99318.28
2023-06-08T17:26:24.271Z,99312.56
2023-06-08T17:28:52.612Z,99306.63
2023-06-08T17:31:20.320Z,99305.28
2023-06-08T17:33:47.444Z,99243.38
2023-06-08T17:36:14.603Z,99300.63
2023-06-08T17:38:41.565Z,99288.25
2023-06-08T17:41:08.509Z,99270.06
2023-06-08T17:43:49.016Z,99299.75
2023-06-08T17:46:17.380Z,99278.53
2023-06-08T17:48:44.948Z,99298.09
2023-06-08T17:51:12.306Z,99305.09
2023-06-08T17:53:39.169Z,99170.25
2023-06-08T17:56:16.686Z,99305.16
2023-06-08T17:58:43.851Z,99263.84
2023-06-08T18:01:11.162Z,99270.59
2023-06-08T18:03:40.126Z,99262.34
2023-06-08T18:06:20.185Z,99319.75
2023-06-08T18:08:52.305Z,99318.78
2023-06-08T18:11:20.624Z,99326.13
2023-06-08T18:13:48.175Z,99344.19
2023-06-08T18:16:15.214Z,99326.41
2023-06-08T18:18:42.542Z,99305.63
2023-06-08T18:21:10.354Z,99334.53
2023-06-08T18:23:37.344Z,99308.19
2023-06-08T18:26:05.577Z,99334.22
2023-06-08T18:28:33.073Z,99327.66
2023-06-08T18:31:00.491Z,99337.72
2023-06-08T18:33:27.571Z,99338.38
2023-06-08T18:35:54.818Z,99252.03
2023-06-08T18:38:22.547Z,99337.34
2023-06-08T18:40:49.796Z,99328.75
2023-06-08T18:43:16.894Z,99328.06
2023-06-08T18:45:43.790Z,99331.06
2023-06-08T18:48:13.003Z,99336.50
2023-06-08T18:50:42.100Z,99238.75
2023-06-08T18:53:09.175Z,99345.00
2023-06-08T18:55:36.383Z,99325.75
2023-06-08T18:58:03.504Z,99337.28
2023-06-08T19:00:30.669Z,99331.00
2023-06-08T19:02:58.231Z,99345.28
2023-06-08T19:05:25.337Z,99178.97
2023-06-08T19:07:52.272Z,99320.50
2023-06-08T19:10:19.749Z,99339.13
2023-06-08T19:12:46.940Z,99258.06
2023-06-08T19:15:14.335Z,99328.13
2023-06-08T19:17:41.525Z,99296.13
2023-06-08T19:20:09.733Z,99348.69
2023-06-08T19:22:38.910Z,99347.81
2023-06-08T19:25:07.248Z,99221.94
2023-06-08T19:27:34.814Z,99359.75
2023-06-08T19:30:02.198Z,99334.66
2023-06-08T19:32:29.390Z,99359.06
2023-06-08T19:34:56.711Z,99352.13
2023-06-08T19:37:23.679Z,99329.16
2023-06-08T19:39:51.996Z,99371.13
2023-06-08T19:42:22.606Z,99368.69
2023-06-08T19:44:54.984Z,99365.41
2023-06-08T19:48:12.876Z,99371.50
2023-06-08T19:50:40.295Z,99300.22
2023-06-08T19:53:07.299Z,99354.22
2023-06-08T19:55:34.217Z,99244.56
2023-06-08T19:58:01.639Z,99355.63
2023-06-08T20:00:28.590Z,99374.59
2023-06-08T20:02:55.721Z,99337.53
2023-06-08T20:05:22.713Z,99379.94
2023-06-08T20:07:50.078Z,99386.56
2023-06-08T20:10:17.945Z,99368.94
2023-06-08T20:12:51.117Z,99392.38
2023-06-08T20:15:18.960Z,99356.00
2023-06-08T20:17:52.075Z,99387.16
2023-06-08T20:20:19.319Z,99396.25
2023-06-08T20:22:46.363Z,99339.34
2023-06-08T20:25:14.112Z,99395.28
2023-06-08T20:27:41.337Z,99351.25
2023-06-08T20:30:10.297Z,99356.88
2023-06-08T20:32:38.204Z,99367.41
2023-06-08T20:35:07.469Z,99330.16
2023-06-08T20:37:35.489Z,99402.06
2023-06-08T20:40:04.404Z,99400.91
2023-06-08T20:42:32.210Z,99399.94
2023-06-08T20:45:02.580Z,99323.09
2023-06-08T20:47:31.307Z,99315.19
2023-06-08T20:50:00.511Z,99380.97
2023-06-08T20:52:27.605Z,99345.38
2023-06-08T20:54:54.747Z,99382.94
2023-06-08T20:57:21.728Z,99407.38
2023-06-08T20:59:49.096Z,99403.25
2023-06-08T21:02:16.240Z,99296.50
2023-06-08T21:04:46.046Z,99306.91
2023-06-08T21:07:13.241Z,99328.34
2023-06-08T21:09:40.187Z,99388.75
2023-06-08T21:12:07.832Z,99409.34
2023-06-08T21:14:34.643Z,99411.34
2023-06-08T21:17:01.565Z,99387.19
2023-06-08T21:19:28.307Z,99438.69
2023-06-08T21:21:55.032Z,99413.94
2023-06-08T21:24:27.778Z,99359.28
2023-06-08T21:26:56.570Z,99415.88
2023-06-08T21:29:23.600Z,99417.50
2023-06-08T21:31:50.671Z,99426.06
2023-06-08T21:34:17.380Z,99391.03
2023-06-08T21:36:44.422Z,99304.19
2023-06-08T21:39:11.703Z,99419.13
2023-06-08T21:41:38.564Z,99328.97
2023-06-08T21:44:05.644Z,99349.81
2023-06-08T21:46:33.668Z,99399.16
2023-06-08T21:49:01.750Z,99312.13
2023-06-08T21:51:28.986Z,99386.72
2023-06-08T21:53:58.402Z,99425.66
2023-06-08T21:56:27.653Z,99432.56
2023-06-08T21:58:58.651Z,99371.16
2023-06-08T22:01:25.681Z,99418.34
2023-06-08T22:03:52.839Z,99334.69
2023-06-08T22:06:21.559Z,99398.88
2023-06-08T22:08:48.722Z,99426.59
2023-06-08T22:11:19.654Z,99423.31
2023-06-08T22:13:53.116Z,99288.50
2023-06-08T22:16:21.602Z,99365.97
2023-06-08T22:18:49.210Z,99341.75
2023-06-08T22:21:19.631Z,99423.31
2023-06-08T22:23:46.912Z,99435.00
2023-06-08T22:26:14.494Z,99373.81
2023-06-08T22:28:41.870Z,99349.13
2023-06-08T22:31:08.992Z,99247.66
2023-06-08T22:33:38.423Z,99292.25
2023-06-08T22:36:07.503Z,99419.44
2023-06-08T22:38:34.239Z,99361.31
2023-06-08T22:41:02.484Z,99417.19
2023-06-08T22:43:29.393Z,99413.88
2023-06-08T22:45:56.455Z,99346.25
2023-06-08T22:48:23.435Z,99212.31
2023-06-08T22:50:50.360Z,99358.44
2023-06-08T22:53:22.554Z,99300.59
2023-06-08T22:55:50.647Z,99417.03
2023-06-08T22:58:17.436Z,99445.47
2023-06-08T23:00:45.326Z,99418.97
2023-06-08T23:03:12.438Z,99271.56
2023-06-08T23:05:39.639Z,99250.31
2023-06-08T23:08:08.719Z,99409.81
2023-06-08T23:10:35.556Z,99410.41
2023-06-08T23:13:02.545Z,99362.66
2023-06-08T23:15:31.859Z,99417.69
2023-06-08T23:17:58.982Z,99335.03
2023-06-08T23:20:26.422Z,99345.41
2023-06-08T23:22:53.613Z,99427.03
2023-06-08T23:25:20.655Z,99408.69
2023-06-08T23:27:47.558Z,99380.50
2023-06-08T23:30:14.722Z,99320.69
2023-06-08T23:32:42.644Z,99393.03
2023-06-08T23:35:10.990Z,99335.53
2023-06-08T23:37:38.894Z,99413.84
2023-06-08T23:40:09.017Z,99412.28
2023-06-08T23:42:35.902Z,99409.06
2023-06-08T23:45:03.611Z,99362.81
2023-06-08T23:47:30.871Z,99255.59
2023-06-08T23:49:57.947Z,99409.66
2023-06-08T23:52:24.956Z,99419.50
2023-06-08T23:54:52.059Z,99406.94
2023-06-08T23:57:19.194Z,99281.63
2023-06-08T23:59:46.179Z,99408.59
